Time;durP1;ratioP1;P1;durP2;ratioP2;P2;SDS_P1;SDS_P2;PMS_P1;PMS_P2;Temp;Humidity;BMP_temperature;BMP_pressure;BME280_temperature;BME280_humidity;BME280_pressure;Samples;Min_cycle;Max_cycle;Signal;HPM_P1;HPM_P2
2020/12/07 00:20:49;;;;;;;;;;;;;;;1.88;98.98;92843.03;5111471;27;19923;-89
2020/12/07 05:04:08;;;;;;;;;;;;;;;2.87;96.97;92754.59;5070667;28;19985;-89
2020/12/07 05:06:34;;;;;;;;;;;;;;;2.89;96.43;92753.44;5073965;28;19928;-90
2020/12/07 05:09:04;;;;;;;;;;;;;;;2.90;97.18;92746.59;5073809;28;19920;-90
2020/12/07 05:11:30;;;;;;;;;;;;;;;2.93;96.81;92743.75;5073981;28;20330;-90
2020/12/07 05:14:02;;;;;;;;;;;;;;;2.96;97.41;92753.53;5073892;28;20394;-89
2020/12/07 05:22:49;;;;;;;;;;;;;;;3.04;96.11;92743.31;5073692;28;19916;-90
2020/12/07 05:25:15;;;;;;;;;;;;;;;2.98;96.06;92731.31;5073909;28;20278;-89
2020/12/07 05:27:51;;;;;;;;;;;;;;;2.97;96.27;92734.03;5073764;28;19920;-90
2020/12/07 05:30:26;;;;;;;;;;;;;;;2.99;96.06;92748.13;5074659;28;19970;-91
2020/12/07 05:32:52;;;;;;;;;;;;;;;2.96;96.12;92747.69;5074408;28;20274;-91
2020/12/07 05:35:18;;;;;;;;;;;;;;;2.94;96.32;92747.84;5079514;28;19927;-90
2020/12/07 05:37:44;;;;;;;;;;;;;;;2.92;96.72;92745.47;5079754;28;19920;-90
2020/12/07 05:40:12;;;;;;;;;;;;;;;2.89;97.06;92738.22;5080116;28;19920;-90
2020/12/07 05:42:38;;;;;;;;;;;;;;;2.88;97.33;92726.47;5079336;28;19920;-90
2020/12/07 05:45:05;;;;;;;;;;;;;;;2.90;98.01;92728.84;5079301;28;19941;-91
2020/12/07 05:47:32;;;;;;;;;;;;;;;2.93;98.94;92728.50;5078041;28;20385;-90
2020/12/07 05:53:24;;;;;;;;;;;;;;;2.79;100.00;92717.41;5077190;28;19916;-90
2020/12/07 06:28:24;;;;;;;;;;;;;;;3.51;98.81;92692.31;5077242;28;19991;-90
2020/12/07 06:30:51;;;;;;;;;;;;;;;3.40;98.34;92687.69;5077999;28;20033;-91
2020/12/07 06:33:20;;;;;;;;;;;;;;;3.41;98.44;92681.63;5076827;28;19931;-90
2020/12/07 06:35:46;;;;;;;;;;;;;;;3.52;98.50;92691.31;5077124;28;20271;-90
2020/12/07 06:38:12;;;;;;;;;;;;;;;3.57;98.28;92685.72;5076823;28;19920;-90
2020/12/07 06:50:12;;;;;;;;;;;;;;;3.72;97.20;92680.59;5075512;28;19916;-90
2020/12/07 06:52:40;;;;;;;;;;;;;;;3.68;96.77;92676.84;5076455;28;19924;-90
2020/12/07 06:55:07;;;;;;;;;;;;;;;3.69;96.64;92666.50;5076502;28;19920;-91
2020/12/07 07:29:59;;;;;;;;;;;;;;;4.80;98.72;92678.88;5034084;28;19986;-90
2020/12/07 07:39:08;;;;;;;;;;;;;;;5.15;97.83;92657.72;5034498;28;19916;-90
2020/12/07 08:15:12;;;;;;;;;;;;;;;5.91;98.68;92642.41;5075054;28;20021;-90
2020/12/07 08:15:49;;;;;;;;;;;;;;;6.18;97.68;92645.81;5074798;28;19955;-90
2020/12/07 08:18:19;;;;;;;;;;;;;;;6.30;96.79;92642.66;5074901;28;19967;-91
2020/12/07 08:20:57;;;;;;;;;;;;;;;6.54;97.31;92646.38;5075107;28;20007;-90
2020/12/07 08:23:26;;;;;;;;;;;;;;;6.73;95.96;92644.78;5076220;28;19920;-90
2020/12/07 08:35:24;;;;;;;;;;;;;;;7.45;91.71;92638.06;5074126;28;19923;-91
2020/12/07 08:44:00;;;;;;;;;;;;;;;7.41;90.84;92635.09;5073898;28;20006;-92
2020/12/07 08:46:27;;;;;;;;;;;;;;;7.61;91.52;92637.56;5074571;28;19955;-91
2020/12/07 08:48:54;;;;;;;;;;;;;;;7.85;89.48;92632.72;5075422;28;19920;-90
2020/12/07 08:51:21;;;;;;;;;;;;;;;7.87;88.81;92635.84;5073899;28;19921;-90
2020/12/07 08:53:47;;;;;;;;;;;;;;;8.12;89.36;92629.97;5074493;28;19930;-91
2020/12/07 08:56:14;;;;;;;;;;;;;;;8.23;88.73;92625.94;5075169;28;19921;-91
2020/12/07 08:58:49;;;;;;;;;;;;;;;7.97;88.55;92614.91;5074158;28;19927;-91
2020/12/07 09:01:15;;;;;;;;;;;;;;;8.09;89.30;92621.91;5075161;28;19928;-91
2020/12/07 09:03:45;;;;;;;;;;;;;;;8.25;88.93;92626.50;5073085;28;19920;-92
2020/12/07 09:06:12;;;;;;;;;;;;;;;8.40;87.93;92618.53;5072225;28;19927;-92
2020/12/07 09:08:40;;;;;;;;;;;;;;;8.49;87.34;92616.47;5072457;28;19989;-92
2020/12/07 09:11:06;;;;;;;;;;;;;;;8.30;86.21;92613.09;5073692;28;20014;-91
2020/12/07 09:13:32;;;;;;;;;;;;;;;7.79;87.24;92597.75;5073649;28;19920;-91
2020/12/07 09:15:58;;;;;;;;;;;;;;;7.55;91.32;92602.59;5072923;28;19927;-91
2020/12/07 09:18:24;;;;;;;;;;;;;;;7.66;90.43;92598.59;5074608;28;20390;-92
2020/12/07 09:20:50;;;;;;;;;;;;;;;7.91;90.62;92594.50;5073978;28;19920;-91
2020/12/07 09:23:26;;;;;;;;;;;;;;;8.03;89.69;92590.28;5073920;28;19920;-91
2020/12/07 09:25:53;;;;;;;;;;;;;;;7.97;89.39;92584.22;5073421;28;19927;-93
2020/12/07 09:28:19;;;;;;;;;;;;;;;7.51;91.86;92585.31;5072013;28;19920;-91
2020/12/07 09:30:45;;;;;;;;;;;;;;;7.77;90.86;92604.06;5071848;28;19927;-94
2020/12/07 09:33:11;;;;;;;;;;;;;;;7.99;89.25;92609.59;5071861;28;19920;-91
2020/12/07 09:35:38;;;;;;;;;;;;;;;7.98;88.56;92601.16;5072928;28;20392;-91
2020/12/07 09:38:04;;;;;;;;;;;;;;;7.95;88.44;92593.09;5072421;28;19920;-92
2020/12/07 09:40:30;;;;;;;;;;;;;;;7.86;88.66;92588.25;5074565;28;19927;-92
2020/12/07 09:42:57;;;;;;;;;;;;;;;7.80;88.21;92593.41;5072945;28;19924;-93
2020/12/07 09:45:23;;;;;;;;;;;;;;;7.63;88.96;92599.00;5071932;28;19927;-92
2020/12/07 09:47:49;;;;;;;;;;;;;;;7.56;89.40;92588.84;5071800;28;19952;-92
2020/12/07 09:50:15;;;;;;;;;;;;;;;7.35;90.18;92582.25;5062311;28;19921;-91
2020/12/07 09:52:41;;;;;;;;;;;;;;;7.19;92.48;92589.41;5051837;28;19927;-90
2020/12/07 09:55:07;;;;;;;;;;;;;;;7.43;91.73;92588.91;5048610;28;19921;-91
2020/12/07 09:57:33;;;;;;;;;;;;;;;7.38;91.38;92573.41;5050941;28;19925;-91
2020/12/07 10:00:00;;;;;;;;;;;;;;;7.52;91.13;92571.56;5048972;28;19928;-90
2020/12/07 10:02:26;;;;;;;;;;;;;;;7.52;90.81;92561.34;5050954;28;19920;-91
2020/12/07 10:04:53;;;;;;;;;;;;;;;7.45;91.37;92562.16;5051449;28;19951;-90
2020/12/07 10:07:19;;;;;;;;;;;;;;;7.55;90.90;92559.13;5051327;28;19920;-91
2020/12/07 10:09:45;;;;;;;;;;;;;;;7.57;91.00;92557.19;5058300;28;19920;-91
2020/12/07 10:12:11;;;;;;;;;;;;;;;7.42;91.38;92560.03;5057380;28;19920;-90
2020/12/07 10:14:37;;;;;;;;;;;;;;;7.56;91.45;92554.81;5061008;28;19921;-91
2020/12/07 10:17:04;;;;;;;;;;;;;;;7.59;90.84;92555.19;5063956;28;19920;-93
2020/12/07 10:19:30;;;;;;;;;;;;;;;7.76;91.35;92554.69;5063565;28;20345;-92
2020/12/07 10:21:57;;;;;;;;;;;;;;;7.89;90.70;92553.81;5063103;28;19924;-91
2020/12/07 10:24:23;;;;;;;;;;;;;;;7.91;90.53;92551.81;5064987;28;19925;-92
2020/12/07 10:26:49;;;;;;;;;;;;;;;7.69;90.65;92551.41;5058021;28;20385;-92
2020/12/07 10:29:15;;;;;;;;;;;;;;;7.61;90.93;92547.31;5054224;28;19930;-92
2020/12/07 10:31:41;;;;;;;;;;;;;;;7.25;92.29;92541.03;5074168;28;19921;-92
2020/12/07 10:34:08;;;;;;;;;;;;;;;7.30;93.86;92538.66;5074575;28;19920;-91
2020/12/07 10:36:34;;;;;;;;;;;;;;;7.47;92.88;92541.50;5074167;28;19924;-90
2020/12/07 10:39:00;;;;;;;;;;;;;;;7.69;91.83;92541.19;5074346;28;19943;-91
2020/12/07 10:41:27;;;;;;;;;;;;;;;7.79;91.07;92551.72;5074328;28;19927;-91
2020/12/07 10:43:53;;;;;;;;;;;;;;;7.55;90.56;92543.81;5074037;28;20375;-91
2020/12/07 10:46:19;;;;;;;;;;;;;;;7.46;91.13;92539.97;5074344;28;19920;-91
2020/12/07 10:48:45;;;;;;;;;;;;;;;7.22;92.83;92530.25;5074521;28;19943;-91
2020/12/07 10:51:12;;;;;;;;;;;;;;;7.24;92.96;92526.72;5074069;28;19924;-92
2020/12/07 10:53:38;;;;;;;;;;;;;;;7.54;92.97;92542.25;5074143;28;19943;-92
2020/12/07 10:56:06;;;;;;;;;;;;;;;7.75;92.15;92533.47;5073986;28;20003;-91
2020/12/07 10:58:32;;;;;;;;;;;;;;;7.84;90.45;92522.97;5073933;28;19932;-91
2020/12/07 11:00:58;;;;;;;;;;;;;;;7.64;90.40;92513.66;5073855;28;19920;-90
2020/12/07 11:03:24;;;;;;;;;;;;;;;7.81;90.47;92510.59;5073994;28;19951;-91
2020/12/07 11:05:51;;;;;;;;;;;;;;;7.92;89.80;92511.69;5073739;28;19920;-91
2020/12/07 11:08:20;;;;;;;;;;;;;;;8.07;90.46;92508.78;5050746;28;20013;-91
2020/12/07 11:10:46;;;;;;;;;;;;;;;8.18;88.91;92505.53;5071230;28;19920;-91
2020/12/07 11:13:26;;;;;;;;;;;;;;;8.31;89.01;92506.38;5074343;28;19920;-91
2020/12/07 11:15:52;;;;;;;;;;;;;;;8.26;88.55;92510.41;5093477;28;19974;-91
2020/12/07 11:18:18;;;;;;;;;;;;;;;8.30;88.17;92505.63;5095404;28;19924;-91
2020/12/07 11:20:44;;;;;;;;;;;;;;;8.31;87.98;92504.63;5095367;28;19920;-92
2020/12/07 11:23:10;;;;;;;;;;;;;;;8.45;88.71;92499.34;5095472;28;19920;-91
2020/12/07 11:25:37;;;;;;;;;;;;;;;8.33;85.55;92496.75;5075955;28;19931;-92
2020/12/07 11:28:03;;;;;;;;;;;;;;;7.78;85.91;92496.44;5094261;28;19927;-91
2020/12/07 11:30:30;;;;;;;;;;;;;;;7.39;87.05;92493.22;5099976;28;19920;-90
2020/12/07 11:32:56;;;;;;;;;;;;;;;7.47;87.85;92496.31;5099082;28;19935;-91
2020/12/07 11:35:22;;;;;;;;;;;;;;;7.16;87.75;92495.31;5078274;28;19920;-91
2020/12/07 11:37:53;;;;;;;;;;;;;;;7.31;88.50;92501.94;5075963;28;19927;-90
2020/12/07 11:40:28;;;;;;;;;;;;;;;7.21;88.39;92490.38;5074472;28;19959;-91
2020/12/07 11:43:03;;;;;;;;;;;;;;;7.12;88.81;92486.50;5073601;28;19931;-90
2020/12/07 11:45:29;;;;;;;;;;;;;;;7.17;88.65;92475.69;5073270;28;19921;-91
2020/12/07 11:47:55;;;;;;;;;;;;;;;7.17;88.83;92470.59;5073791;28;19983;-91
2020/12/07 11:50:21;;;;;;;;;;;;;;;7.31;88.49;92466.94;5074127;28;19943;-91
2020/12/07 11:52:47;;;;;;;;;;;;;;;7.30;86.99;92472.25;5073486;28;20362;-91
2020/12/07 11:55:13;;;;;;;;;;;;;;;7.38;86.95;92481.44;5073935;28;19920;-91
2020/12/07 11:57:39;;;;;;;;;;;;;;;7.44;86.41;92478.81;5073270;28;20279;-90
2020/12/07 12:00:06;;;;;;;;;;;;;;;7.68;86.75;92480.81;5073221;28;20378;-90
2020/12/07 12:02:32;;;;;;;;;;;;;;;7.84;86.00;92477.72;5074509;28;19920;-92
2020/12/07 12:04:58;;;;;;;;;;;;;;;7.97;85.42;92487.03;5093430;28;21236;-91
2020/12/07 12:07:24;;;;;;;;;;;;;;;8.05;84.48;92478.31;5078895;28;20374;-90
2020/12/07 12:09:51;;;;;;;;;;;;;;;8.16;85.45;92481.94;5058557;28;19975;-91
2020/12/07 12:12:17;;;;;;;;;;;;;;;8.26;84.75;92478.91;5052971;28;19931;-91
2020/12/07 12:14:43;;;;;;;;;;;;;;;8.29;83.81;92479.25;5053099;28;19921;-90
2020/12/07 12:17:10;;;;;;;;;;;;;;;8.32;82.76;92472.16;5053006;28;19921;-91
2020/12/07 12:19:36;;;;;;;;;;;;;;;8.37;83.74;92473.06;5053303;28;19921;-92
2020/12/07 12:22:02;;;;;;;;;;;;;;;8.42;83.41;92480.88;5053249;28;19920;-91
2020/12/07 12:24:28;;;;;;;;;;;;;;;8.47;82.82;92493.03;5053192;28;19983;-91
2020/12/07 12:26:54;;;;;;;;;;;;;;;8.49;82.15;92490.25;5053241;28;19920;-91
2020/12/07 12:29:20;;;;;;;;;;;;;;;8.55;82.04;92486.88;5052689;28;19921;-91
2020/12/07 12:31:46;;;;;;;;;;;;;;;8.59;82.59;92487.22;5052580;28;19927;-92
2020/12/07 12:34:13;;;;;;;;;;;;;;;8.61;80.66;92486.00;5052856;28;19925;-91
2020/12/07 12:36:39;;;;;;;;;;;;;;;8.59;81.27;92479.53;5053078;28;19920;-91
2020/12/07 12:39:05;;;;;;;;;;;;;;;8.50;80.99;92477.25;5054338;28;20051;-90
2020/12/07 12:41:32;;;;;;;;;;;;;;;8.40;82.69;92475.22;5053401;28;20035;-92
2020/12/07 12:43:58;;;;;;;;;;;;;;;8.28;84.17;92476.91;5052632;28;19944;-90
2020/12/07 12:46:24;;;;;;;;;;;;;;;8.09;84.95;92476.09;5052575;28;20394;-92
2020/12/07 12:48:50;;;;;;;;;;;;;;;7.88;86.01;92476.28;5052431;28;20374;-92
2020/12/07 12:51:17;;;;;;;;;;;;;;;7.82;86.65;92471.25;5052109;28;19928;-92
2020/12/07 12:53:43;;;;;;;;;;;;;;;7.38;87.70;92472.00;5052405;28;19920;-91
2020/12/07 12:56:09;;;;;;;;;;;;;;;7.48;87.64;92466.41;5052435;28;19982;-92
2020/12/07 12:58:36;;;;;;;;;;;;;;;7.44;87.31;92462.72;5052309;28;19966;-90
2020/12/07 13:01:02;;;;;;;;;;;;;;;7.26;88.19;92471.88;5043955;28;20077;-91
2020/12/07 13:03:28;;;;;;;;;;;;;;;7.24;88.41;92471.31;5045907;28;19921;-92
2020/12/07 13:05:54;;;;;;;;;;;;;;;7.45;87.22;92465.06;5032331;28;20390;-91
2020/12/07 13:08:21;;;;;;;;;;;;;;;7.38;87.26;92469.44;5034361;28;19968;-90
2020/12/07 13:10:48;;;;;;;;;;;;;;;7.30;87.59;92478.16;5052746;28;20359;-90
2020/12/07 13:13:14;;;;;;;;;;;;;;;7.22;87.42;92475.81;5064652;28;20341;-90
2020/12/07 13:15:46;;;;;;;;;;;;;;;7.18;87.46;92478.00;5073311;28;19922;-92
2020/12/07 13:18:12;;;;;;;;;;;;;;;6.93;89.08;92477.97;5072351;28;19927;-91
2020/12/07 13:20:42;;;;;;;;;;;;;;;6.88;89.65;92480.34;5072793;28;19925;-89
2020/12/07 13:23:15;;;;;;;;;;;;;;;6.70;90.36;92479.25;5073221;28;19968;-90
2020/12/07 13:25:48;;;;;;;;;;;;;;;6.70;90.54;92481.81;5073578;28;19924;-91
2020/12/07 13:28:15;;;;;;;;;;;;;;;6.77;91.04;92480.00;5074821;28;19924;-91
2020/12/07 13:30:41;;;;;;;;;;;;;;;6.76;90.48;92485.34;5075480;28;19927;-91
2020/12/07 13:33:09;;;;;;;;;;;;;;;6.81;91.01;92488.84;5073521;28;20428;-91
2020/12/07 13:35:35;;;;;;;;;;;;;;;6.84;91.48;92495.28;5073946;28;19920;-90
2020/12/07 13:38:01;;;;;;;;;;;;;;;6.81;91.59;92493.94;5073825;28;20298;-90
2020/12/07 13:40:27;;;;;;;;;;;;;;;6.73;92.19;92493.38;5073045;28;19921;-91
2020/12/07 13:42:54;;;;;;;;;;;;;;;6.68;93.01;92489.66;5074467;28;19920;-92
2020/12/07 13:45:20;;;;;;;;;;;;;;;6.74;93.27;92489.84;5074267;28;19936;-93
2020/12/07 13:47:46;;;;;;;;;;;;;;;6.78;92.64;92501.22;5074140;28;19950;-92
2020/12/07 13:50:12;;;;;;;;;;;;;;;6.74;92.77;92497.50;5072610;28;19927;-92
2020/12/07 13:52:39;;;;;;;;;;;;;;;6.76;93.15;92495.53;5072668;28;19924;-93
2020/12/07 13:55:05;;;;;;;;;;;;;;;6.24;94.72;92491.19;5075197;28;19924;-90
2020/12/07 13:57:31;;;;;;;;;;;;;;;6.07;95.91;92489.06;5076094;28;19920;-90
2020/12/07 13:59:58;;;;;;;;;;;;;;;6.17;95.38;92490.44;5076082;28;20019;-91
2020/12/07 14:02:24;;;;;;;;;;;;;;;5.94;96.29;92489.88;5076390;28;19966;-92
2020/12/07 14:04:57;;;;;;;;;;;;;;;6.11;96.16;92503.00;5055501;28;20432;-91
2020/12/07 14:07:23;;;;;;;;;;;;;;;6.12;96.10;92504.56;5055235;28;19927;-91
2020/12/07 14:09:49;;;;;;;;;;;;;;;6.10;96.23;92498.88;5065905;28;19947;-92
2020/12/07 14:12:15;;;;;;;;;;;;;;;6.05;96.26;92500.47;5076671;28;19931;-92
2020/12/07 14:14:41;;;;;;;;;;;;;;;6.00;96.95;92499.28;5074452;28;19970;-93
2020/12/07 14:17:10;;;;;;;;;;;;;;;6.09;97.20;92496.53;5072887;28;19928;-94
2020/12/07 14:19:46;;;;;;;;;;;;;;;6.17;96.39;92501.44;5075841;28;20404;-91
2020/12/07 14:25:16;;;;;;;;;;;;;;;6.34;96.20;92508.66;5075314;28;19920;-93
2020/12/07 14:28:03;;;;;;;;;;;;;;;6.39;95.68;92507.06;5075706;28;19992;-94
2020/12/07 14:30:51;;;;;;;;;;;;;;;6.47;95.72;92512.94;5075562;28;19921;-94
2020/12/07 14:41:44;;;;;;;;;;;;;;;6.59;95.17;92510.53;5052432;28;19966;-94
2020/12/07 14:44:10;;;;;;;;;;;;;;;6.64;95.26;92516.59;5077176;28;19947;-94
2020/12/07 14:46:36;;;;;;;;;;;;;;;6.71;94.42;92518.34;5075338;28;19951;-94
2020/12/07 14:49:03;;;;;;;;;;;;;;;6.75;94.04;92522.06;5074983;28;19967;-94
2020/12/07 14:51:35;;;;;;;;;;;;;;;6.76;94.46;92516.72;5076056;28;19936;-94
2020/12/07 14:54:04;;;;;;;;;;;;;;;6.74;93.97;92518.72;5074235;28;20393;-95
2020/12/07 14:56:41;;;;;;;;;;;;;;;6.73;94.45;92517.16;5073968;28;20019;-94
2020/12/07 15:02:10;;;;;;;;;;;;;;;6.75;93.88;92514.41;5031817;28;20003;-95
2020/12/07 15:07:17;;;;;;;;;;;;;;;6.81;93.69;92518.69;5075471;28;19920;-95
2020/12/07 15:12:38;;;;;;;;;;;;;;;6.77;93.67;92522.63;5076728;28;19966;-95
2020/12/07 15:15:03;;;;;;;;;;;;;;;6.75;94.53;92527.16;5073931;28;19923;-95
2020/12/07 15:17:29;;;;;;;;;;;;;;;6.72;94.46;92523.25;5074048;28;20496;-95
2020/12/07 15:19:56;;;;;;;;;;;;;;;6.73;95.00;92524.00;5073941;28;20434;-95
2020/12/07 15:22:22;;;;;;;;;;;;;;;6.73;94.94;92527.38;5073658;28;20397;-96
2020/12/07 15:24:48;;;;;;;;;;;;;;;6.70;94.27;92530.31;5073622;28;19920;-95
2020/12/07 15:27:15;;;;;;;;;;;;;;;6.64;94.25;92528.56;5073273;28;19921;-96
2020/12/07 15:29:41;;;;;;;;;;;;;;;6.49;93.56;92533.91;5073211;28;20471;-95
2020/12/07 15:32:07;;;;;;;;;;;;;;;6.37;93.95;92534.53;5074878;28;19946;-96
2020/12/07 15:34:34;;;;;;;;;;;;;;;6.33;94.49;92535.13;5074022;28;19920;-96
2020/12/07 15:37:01;;;;;;;;;;;;;;;6.21;94.40;92543.38;5073426;28;19970;-95
2020/12/07 15:39:28;;;;;;;;;;;;;;;6.14;94.15;92540.06;5075246;28;19920;-95
2020/12/07 15:41:54;;;;;;;;;;;;;;;6.03;94.78;92536.38;5073685;28;19920;-96
2020/12/07 15:44:20;;;;;;;;;;;;;;;5.94;95.43;92532.41;5073864;28;19925;-95
2020/12/07 15:46:46;;;;;;;;;;;;;;;5.96;96.63;92546.53;5073885;28;19931;-96
2020/12/07 15:49:12;;;;;;;;;;;;;;;5.88;95.69;92541.66;5073729;28;19920;-96
2020/12/07 15:51:38;;;;;;;;;;;;;;;5.80;96.08;92542.63;5073495;28;19921;-96
2020/12/07 15:54:05;;;;;;;;;;;;;;;5.73;95.62;92534.97;5073728;28;20389;-96
2020/12/07 15:56:31;;;;;;;;;;;;;;;5.68;96.43;92537.34;5073138;28;19921;-96
2020/12/07 15:58:57;;;;;;;;;;;;;;;5.49;96.88;92533.78;5073483;28;19920;-95
2020/12/07 16:01:24;;;;;;;;;;;;;;;5.43;97.63;92539.66;5076400;28;19931;-96
2020/12/07 16:03:52;;;;;;;;;;;;;;;5.18;98.13;92538.44;5072497;28;19927;-96
2020/12/07 16:06:18;;;;;;;;;;;;;;;5.21;97.85;92545.72;5072598;28;19927;-96
2020/12/07 16:08:44;;;;;;;;;;;;;;;5.20;98.01;92548.44;5072753;28;19920;-95
2020/12/07 16:11:17;;;;;;;;;;;;;;;5.18;98.49;92545.28;5071149;28;19932;-95
2020/12/07 16:13:45;;;;;;;;;;;;;;;5.07;98.25;92551.75;5072928;28;19963;-95
2020/12/07 16:16:13;;;;;;;;;;;;;;;5.13;98.12;92555.28;5072469;28;19921;-95
2020/12/07 16:18:39;;;;;;;;;;;;;;;5.14;98.68;92556.84;5072341;28;19920;-95
2020/12/07 16:21:05;;;;;;;;;;;;;;;5.06;98.30;92557.81;5072513;28;19924;-95
2020/12/07 16:23:31;;;;;;;;;;;;;;;4.97;97.80;92554.66;5070112;28;20007;-94
2020/12/07 16:25:58;;;;;;;;;;;;;;;4.93;98.19;92559.34;5072081;28;19928;-95
2020/12/07 16:28:24;;;;;;;;;;;;;;;4.96;98.36;92563.28;5071704;28;20231;-94
2020/12/07 16:30:50;;;;;;;;;;;;;;;4.97;99.37;92556.41;5076083;28;19921;-94
2020/12/07 16:33:17;;;;;;;;;;;;;;;4.72;99.90;92562.00;5075382;28;19920;-95
2020/12/07 16:35:43;;;;;;;;;;;;;;;4.84;98.77;92570.66;5076204;28;19978;-95
2020/12/07 16:38:09;;;;;;;;;;;;;;;4.80;99.23;92566.91;5070131;28;20416;-94
2020/12/07 16:40:35;;;;;;;;;;;;;;;4.71;98.98;92566.28;5070629;28;19920;-94
2020/12/07 16:43:01;;;;;;;;;;;;;;;4.68;99.28;92574.31;5071749;28;19925;-94
2020/12/07 16:45:28;;;;;;;;;;;;;;;4.72;98.57;92565.31;5072548;28;19974;-94
2020/12/07 16:47:54;;;;;;;;;;;;;;;4.71;98.75;92563.75;5076880;28;20345;-92
2020/12/07 16:50:20;;;;;;;;;;;;;;;4.51;99.76;92567.00;5085944;28;19920;-94
2020/12/07 16:52:46;;;;;;;;;;;;;;;4.50;100.00;92570.50;5093216;28;19927;-93
2020/12/07 16:55:12;;;;;;;;;;;;;;;4.60;99.13;92560.00;5085701;28;19920;-94
2020/12/07 16:57:38;;;;;;;;;;;;;;;4.62;99.32;92562.34;5064986;28;19945;-95
2020/12/07 17:00:05;;;;;;;;;;;;;;;4.56;98.25;92558.81;5066032;28;19931;-95
2020/12/07 17:02:32;;;;;;;;;;;;;;;4.53;98.26;92559.16;5070447;28;19924;-95
2020/12/07 17:04:58;;;;;;;;;;;;;;;4.50;97.71;92567.19;5074300;28;19921;-95
2020/12/07 17:07:24;;;;;;;;;;;;;;;4.50;98.28;92560.31;5072860;28;19920;-96
2020/12/07 17:09:50;;;;;;;;;;;;;;;4.45;98.23;92560.13;5073519;28;20031;-95
2020/12/07 17:12:18;;;;;;;;;;;;;;;4.27;98.37;92561.38;5072219;28;19920;-95
2020/12/07 17:14:44;;;;;;;;;;;;;;;4.25;97.75;92562.53;5071367;28;19925;-95
2020/12/07 17:17:10;;;;;;;;;;;;;;;4.22;97.66;92566.25;5071601;28;19920;-94
2020/12/07 17:19:36;;;;;;;;;;;;;;;4.05;98.88;92565.75;5071360;28;19921;-92
2020/12/07 17:22:03;;;;;;;;;;;;;;;4.18;99.16;92561.72;5071725;28;20333;-94
2020/12/07 17:24:29;;;;;;;;;;;;;;;4.02;98.97;92568.66;5068861;28;19924;-95
2020/12/07 17:26:55;;;;;;;;;;;;;;;3.77;100.00;92565.72;5071474;28;19920;-95
2020/12/07 17:29:21;;;;;;;;;;;;;;;3.58;100.00;92565.41;5082184;28;20412;-95
2020/12/07 17:31:47;;;;;;;;;;;;;;;3.57;100.00;92569.69;5072735;28;19920;-94
2020/12/07 17:34:13;;;;;;;;;;;;;;;3.60;100.00;92571.88;5071515;28;19927;-94
2020/12/07 17:36:42;;;;;;;;;;;;;;;3.67;100.00;92576.22;5071192;28;19924;-94
2020/12/07 17:39:08;;;;;;;;;;;;;;;3.87;100.00;92576.38;5056992;28;19943;-94
2020/12/07 17:41:34;;;;;;;;;;;;;;;4.04;100.00;92581.19;5051237;28;19927;-94
2020/12/07 17:44:00;;;;;;;;;;;;;;;4.20;100.00;92577.56;5081051;28;19978;-95
2020/12/07 17:46:26;;;;;;;;;;;;;;;4.32;100.00;92577.84;5092022;28;20332;-94
2020/12/07 17:48:53;;;;;;;;;;;;;;;4.12;100.00;92589.44;5103682;28;19920;-96
2020/12/07 17:51:20;;;;;;;;;;;;;;;3.92;100.00;92583.44;5111573;28;19949;-94
2020/12/07 17:53:47;;;;;;;;;;;;;;;3.80;100.00;92589.00;5112324;28;19920;-96
2020/12/07 17:56:13;;;;;;;;;;;;;;;3.59;100.00;92590.63;5101106;28;20287;-94
2020/12/07 17:58:39;;;;;;;;;;;;;;;3.48;100.00;92591.09;5074737;28;20341;-94
2020/12/07 18:01:05;;;;;;;;;;;;;;;3.55;100.00;92591.94;5072645;28;19921;-94
2020/12/07 18:03:31;;;;;;;;;;;;;;;3.70;100.00;92598.72;5071719;28;19925;-95
2020/12/07 18:05:57;;;;;;;;;;;;;;;3.62;100.00;92589.47;5072139;28;20317;-95
2020/12/07 18:08:26;;;;;;;;;;;;;;;3.60;100.00;92596.47;5076634;28;19928;-96
2020/12/07 18:10:53;;;;;;;;;;;;;;;3.59;100.00;92597.44;5075260;28;19966;-94
2020/12/07 18:13:20;;;;;;;;;;;;;;;3.74;100.00;92594.81;5072637;28;20401;-95
2020/12/07 18:15:46;;;;;;;;;;;;;;;3.65;100.00;92601.78;5067798;28;19970;-94
2020/12/07 18:18:14;;;;;;;;;;;;;;;3.55;100.00;92606.38;5066665;28;19921;-95
2020/12/07 18:20:40;;;;;;;;;;;;;;;3.81;100.00;92600.78;5071924;28;20260;-94
2020/12/07 18:23:06;;;;;;;;;;;;;;;3.99;100.00;92597.75;5073200;28;19920;-93
2020/12/07 18:25:32;;;;;;;;;;;;;;;3.92;100.00;92598.69;5072127;28;20424;-93
2020/12/07 18:27:59;;;;;;;;;;;;;;;3.92;99.52;92602.00;5073176;28;19967;-94
2020/12/07 18:30:25;;;;;;;;;;;;;;;4.04;99.50;92607.41;5072371;28;19920;-95
2020/12/07 18:32:51;;;;;;;;;;;;;;;3.76;98.98;92608.16;5085601;28;20412;-96
2020/12/07 18:35:17;;;;;;;;;;;;;;;3.65;99.89;92617.03;5071790;28;20290;-94
2020/12/07 18:37:43;;;;;;;;;;;;;;;3.57;100.00;92614.63;5071662;28;19921;-94
2020/12/07 18:40:09;;;;;;;;;;;;;;;3.62;100.00;92612.31;5071959;28;19924;-91
2020/12/07 18:42:35;;;;;;;;;;;;;;;3.83;100.00;92618.34;5074639;28;19920;-92
2020/12/07 18:45:03;;;;;;;;;;;;;;;3.74;100.00;92615.94;5076431;28;19920;-93
2020/12/07 18:47:30;;;;;;;;;;;;;;;3.87;99.93;92612.75;5077676;28;19920;-94
2020/12/07 18:49:56;;;;;;;;;;;;;;;3.92;99.26;92608.84;5081703;28;19924;-93
2020/12/07 18:52:22;;;;;;;;;;;;;;;4.04;99.75;92606.59;5092794;28;19920;-92
2020/12/07 18:54:48;;;;;;;;;;;;;;;4.13;98.70;92611.34;5089782;28;19928;-92
2020/12/07 18:57:14;;;;;;;;;;;;;;;4.25;98.29;92610.84;5079786;28;20386;-92
2020/12/07 18:59:40;;;;;;;;;;;;;;;4.36;98.88;92605.25;5076394;28;19970;-93
2020/12/07 19:02:07;;;;;;;;;;;;;;;4.39;96.78;92604.09;5076055;28;20333;-94
2020/12/07 19:04:34;;;;;;;;;;;;;;;4.48;96.94;92604.72;5074277;28;19924;-94
2020/12/07 19:07:02;;;;;;;;;;;;;;;4.53;97.56;92604.94;5074398;28;19920;-94
2020/12/07 19:09:28;;;;;;;;;;;;;;;4.61;97.62;92611.66;5073955;28;19921;-94
2020/12/07 19:11:54;;;;;;;;;;;;;;;4.67;97.33;92611.69;5074070;28;20293;-93
2020/12/07 19:14:21;;;;;;;;;;;;;;;4.69;96.98;92614.06;5074778;28;19925;-92
2020/12/07 19:16:47;;;;;;;;;;;;;;;4.74;97.14;92609.19;5080936;28;19926;-93
2020/12/07 19:19:14;;;;;;;;;;;;;;;4.79;97.25;92619.59;5081778;28;19943;-95
2020/12/07 19:21:40;;;;;;;;;;;;;;;4.76;96.58;92617.41;5077293;28;19928;-94
2020/12/07 19:24:06;;;;;;;;;;;;;;;4.84;96.28;92620.75;5076502;28;20003;-94
2020/12/07 19:26:33;;;;;;;;;;;;;;;4.76;95.64;92622.50;5074704;28;19927;-94
2020/12/07 19:28:59;;;;;;;;;;;;;;;4.72;95.59;92623.84;5072613;28;19927;-92
2020/12/07 19:31:30;;;;;;;;;;;;;;;4.76;95.54;92625.03;5078987;28;19974;-93
2020/12/07 19:33:56;;;;;;;;;;;;;;;4.47;94.48;92624.31;5073889;28;19924;-93
2020/12/07 19:36:23;;;;;;;;;;;;;;;4.28;94.44;92629.09;5085760;28;19920;-91
2020/12/07 19:38:49;;;;;;;;;;;;;;;4.34;94.60;92637.72;5080980;28;19920;-93
2020/12/07 19:41:15;;;;;;;;;;;;;;;3.74;94.84;92631.19;5082496;28;19927;-92
2020/12/07 19:43:41;;;;;;;;;;;;;;;3.80;95.85;92632.19;5081332;28;19927;-93
2020/12/07 19:46:07;;;;;;;;;;;;;;;3.65;95.92;92636.59;5080788;28;20281;-92
2020/12/07 19:48:33;;;;;;;;;;;;;;;3.80;95.73;92637.28;5080933;28;19975;-93
2020/12/07 19:50:59;;;;;;;;;;;;;;;3.39;96.50;92636.13;5083114;28;20003;-93
2020/12/07 19:53:26;;;;;;;;;;;;;;;3.33;97.89;92634.28;5084317;28;19963;-92
2020/12/07 19:55:52;;;;;;;;;;;;;;;3.36;97.89;92640.75;5077462;28;19924;-93
2020/12/07 19:58:18;;;;;;;;;;;;;;;3.50;97.10;92632.31;5072818;28;19920;-93
2020/12/07 20:00:44;;;;;;;;;;;;;;;3.25;98.49;92637.75;5073100;28;19921;-93
2020/12/07 20:03:11;;;;;;;;;;;;;;;3.37;99.49;92642.38;5072585;28;19924;-93
2020/12/07 20:05:37;;;;;;;;;;;;;;;3.56;98.99;92644.31;5073064;28;19927;-92
2020/12/07 20:08:04;;;;;;;;;;;;;;;3.58;97.77;92647.47;5073651;28;19924;-93
2020/12/07 20:10:31;;;;;;;;;;;;;;;3.56;94.35;92646.84;5089239;28;20370;-92
2020/12/07 20:12:57;;;;;;;;;;;;;;;3.44;94.64;92649.09;5073230;28;19927;-92
2020/12/07 20:15:23;;;;;;;;;;;;;;;3.43;94.84;92644.94;5073799;28;19924;-91
2020/12/07 20:17:49;;;;;;;;;;;;;;;3.48;94.83;92652.03;5072748;28;19920;-91
2020/12/07 20:20:15;;;;;;;;;;;;;;;3.52;94.74;92645.63;5072454;28;19920;-92
2020/12/07 20:22:41;;;;;;;;;;;;;;;3.43;94.08;92652.56;5072032;28;20378;-93
2020/12/07 20:25:08;;;;;;;;;;;;;;;3.52;93.92;92660.09;5072351;28;19966;-92
2020/12/07 20:27:35;;;;;;;;;;;;;;;3.45;94.80;92652.41;5072612;28;20386;-93
2020/12/07 20:30:01;;;;;;;;;;;;;;;3.43;93.76;92652.56;5064254;28;19920;-93
2020/12/07 20:32:28;;;;;;;;;;;;;;;3.32;93.64;92651.28;5072336;28;19920;-92